Time;durP1;ratioP1;P1;durP2;ratioP2;P2;SDS_P1;SDS_P2;PMS_P1;PMS_P2;Temp;Humidity;BMP_temperature;BMP_pressure;BME280_temperature;BME280_humidity;BME280_pressure;Samples;Min_cycle;Max_cycle;Signal;HPM_P1;HPM_P2
2022/11/23 00:00:23;;;;;;;20.15;13.88;;;;;;;0.46;100.00;94643.44;5071535;28;20479;-63
2022/11/23 00:02:58;;;;;;;18.38;12.77;;;;;;;0.35;100.00;94639.00;5085526;28;20070;-63
2022/11/23 00:05:24;;;;;;;21.55;12.77;;;;;;;0.28;100.00;94637.75;5074750;28;20039;-63
2022/11/23 00:07:50;;;;;;;23.35;13.40;;;;;;;0.21;100.00;94632.16;5083350;28;20019;-63
2022/11/23 00:10:16;;;;;;;26.27;14.77;;;;;;;0.17;100.00;94635.91;5080207;28;20079;-63
2022/11/23 00:12:41;;;;;;;23.38;14.90;;;;;;;0.14;100.00;94633.53;5082503;28;20028;-58
2022/11/23 00:15:07;;;;;;;25.50;14.25;;;;;;;0.09;100.00;94645.94;5079121;28;20024;-64
2022/11/23 00:17:32;;;;;;;28.92;15.60;;;;;;;0.14;100.00;94646.47;5077781;28;20036;-65
2022/11/23 00:19:58;;;;;;;28.35;19.02;;;;;;;0.17;100.00;94656.63;5079914;28;20508;-65
2022/11/23 00:22:24;;;;;;;30.25;19.05;;;;;;;0.13;100.00;94650.81;5086063;28;20510;-65
2022/11/23 00:24:49;;;;;;;27.88;20.50;;;;;;;0.09;100.00;94648.53;5084748;28;20543;-65
2022/11/23 00:27:15;;;;;;;31.38;21.65;;;;;;;0.12;100.00;94648.34;5080830;28;20016;-66
2022/11/23 00:29:40;;;;;;;42.22;28.10;;;;;;;0.03;100.00;94639.44;5082953;28;20016;-59
2022/11/23 00:32:05;;;;;;;52.08;34.85;;;;;;;-0.01;100.00;94633.63;5085871;28;20048;-59
2022/11/23 00:34:31;;;;;;;42.75;30.85;;;;;;;-0.03;100.00;94632.91;5088340;28;20032;-61
2022/11/23 00:36:56;;;;;;;42.35;32.08;;;;;;;-0.04;100.00;94622.66;5083180;28;20017;-60
2022/11/23 00:39:21;;;;;;;43.40;32.78;;;;;;;-0.05;100.00;94624.41;5074156;28;20031;-61
2022/11/23 00:41:47;;;;;;;49.22;33.72;;;;;;;-0.05;100.00;94628.75;5081538;28;20021;-61
2022/11/23 00:44:12;;;;;;;40.85;30.60;;;;;;;-0.02;100.00;94624.22;5083874;28;20393;-60
2022/11/23 00:46:37;;;;;;;42.08;28.17;;;;;;;0.01;100.00;94619.75;5086853;28;20062;-60
2022/11/23 00:49:03;;;;;;;40.65;26.17;;;;;;;-0.08;100.00;94623.78;5078616;28;20028;-61
2022/11/23 00:51:32;;;;;;;33.22;23.27;;;;;;;-0.13;100.00;94624.09;5076811;28;20025;-63
2022/11/23 00:53:58;;;;;;;36.80;22.77;;;;;;;-0.16;100.00;94630.31;5083175;28;20405;-63
2022/11/23 00:56:24;;;;;;;29.25;19.33;;;;;;;-0.24;100.00;94616.22;5082809;28;20043;-63
2022/11/23 00:58:54;;;;;;;27.80;17.17;;;;;;;-0.26;100.00;94615.50;5090154;28;20038;-64
2022/11/23 01:01:23;;;;;;;30.33;19.33;;;;;;;-0.16;100.00;94622.56;5082462;28;20032;-64
2022/11/23 01:03:52;;;;;;;29.60;20.70;;;;;;;-0.11;100.00;94611.06;5081987;28;20023;-64
2022/11/23 01:06:23;;;;;;;31.33;19.75;;;;;;;-0.16;100.00;94624.28;5076564;28;20104;-64
2022/11/23 01:08:57;;;;;;;26.80;18.88;;;;;;;-0.20;100.00;94633.19;5081755;28;20024;-59
2022/11/23 01:11:25;;;;;;;20.83;16.42;;;;;;;-0.25;100.00;94638.66;5078068;28;20060;-66
2022/11/23 01:13:51;;;;;;;22.77;15.82;;;;;;;-0.24;100.00;94636.94;5075917;28;20397;-66
2022/11/23 01:16:22;;;;;;;20.52;14.65;;;;;;;-0.17;100.00;94633.00;5087861;28;20035;-66
2022/11/23 01:18:51;;;;;;;17.75;12.15;;;;;;;-0.22;100.00;94638.50;5079226;28;20623;-66
2022/11/23 01:21:17;;;;;;;13.82;11.35;;;;;;;-0.27;100.00;94637.94;5076788;28;20062;-66
2022/11/23 01:23:42;;;;;;;16.50;12.55;;;;;;;-0.33;100.00;94649.56;5082441;28;20044;-66
2022/11/23 01:26:09;;;;;;;16.77;12.57;;;;;;;-0.39;100.00;94647.34;5080849;28;20031;-63
2022/11/23 01:28:36;;;;;;;26.48;17.75;;;;;;;-0.39;100.00;94649.13;5084115;28;20032;-60
2022/11/23 01:31:06;;;;;;;35.88;25.50;;;;;;;-0.39;100.00;94646.53;5083332;28;20039;-62
2022/11/23 01:33:32;;;;;;;34.83;24.98;;;;;;;-0.42;100.00;94634.63;5082011;28;20041;-61
2022/11/23 01:35:57;;;;;;;33.42;21.60;;;;;;;-0.46;100.00;94633.16;5084833;28;20085;-61
2022/11/23 01:38:23;;;;;;;38.72;23.65;;;;;;;-0.50;100.00;94627.38;5082312;28;20024;-62
2022/11/23 01:40:48;;;;;;;35.03;21.88;;;;;;;-0.46;100.00;94633.97;5086741;28;20486;-61
2022/11/23 01:43:16;;;;;;;33.35;21.40;;;;;;;-0.48;100.00;94630.69;5077317;28;20456;-61
2022/11/23 01:46:03;;;;;;;45.33;25.33;;;;;;;-0.45;100.00;94624.47;5085426;28;20536;-61
2022/11/23 01:48:36;;;;;;;33.00;20.08;;;;;;;-0.41;100.00;94625.94;5085449;28;20068;-61
2022/11/23 01:51:10;;;;;;;37.40;23.23;;;;;;;-0.44;100.00;94620.97;5076603;28;20066;-61
2022/11/23 01:53:36;;;;;;;28.05;17.60;;;;;;;-0.51;100.00;94624.91;5083510;28;20059;-60
2022/11/23 01:56:05;;;;;;;17.13;10.65;;;;;;;-0.49;100.00;94635.97;5077851;28;20036;-60
2022/11/23 01:58:34;;;;;;;9.85;6.93;;;;;;;-0.41;100.00;94649.22;5086350;28;20081;-60
2022/11/23 02:00:59;;;;;;;7.70;6.13;;;;;;;-0.26;100.00;94633.63;5095986;28;20489;-61
2022/11/23 02:03:27;;;;;;;15.80;8.88;;;;;;;-0.28;100.00;94638.88;5084000;28;20035;-61
2022/11/23 02:06:00;;;;;;;23.45;12.48;;;;;;;-0.28;100.00;94651.00;5077590;28;20490;-60
2022/11/23 02:08:27;;;;;;;22.35;14.15;;;;;;;-0.36;100.00;94680.75;5077093;28;20120;-60
2022/11/23 02:10:55;;;;;;;27.48;16.02;;;;;;;-0.32;100.00;94679.66;5086289;28;20047;-63
2022/11/23 02:13:22;;;;;;;34.60;18.92;;;;;;;-0.31;100.00;94678.72;5078660;28;20110;-63
2022/11/23 02:15:47;;;;;;;38.30;20.38;;;;;;;-0.35;100.00;94672.06;5083809;28;20078;-63
2022/11/23 02:18:18;;;;;;;31.88;16.05;;;;;;;-0.40;100.00;94671.56;5085021;28;20035;-62
2022/11/23 02:20:44;;;;;;;24.83;15.15;;;;;;;-0.47;100.00;94668.53;5078944;28;20050;-62
2022/11/23 02:23:38;;;;;;;22.38;14.35;;;;;;;-0.52;100.00;94649.91;5079537;28;20020;-62
2022/11/23 02:26:30;;;;;;;21.35;12.45;;;;;;;-0.50;100.00;94635.13;5076394;28;20521;-60
2022/11/23 02:29:06;;;;;;;15.13;10.05;;;;;;;-0.46;100.00;94643.50;5081903;28;20038;-62
2022/11/23 02:31:31;;;;;;;16.15;9.48;;;;;;;-0.45;100.00;94624.47;5086271;28;20036;-63
2022/11/23 02:33:57;;;;;;;12.75;9.55;;;;;;;-0.37;100.00;94629.97;5075287;28;20040;-63
2022/11/23 02:36:50;;;;;;;14.40;8.95;;;;;;;-0.39;100.00;94626.66;5078324;28;20063;-62
2022/11/23 02:39:34;;;;;;;11.98;8.57;;;;;;;-0.44;100.00;94623.56;5072343;28;20590;-63
2022/11/23 02:41:59;;;;;;;12.75;8.40;;;;;;;-0.45;100.00;94616.72;5085059;28;20043;-63
2022/11/23 02:44:38;;;;;;;9.60;6.53;;;;;;;-0.45;100.00;94611.56;5084397;28;20028;-62
2022/11/23 02:47:05;;;;;;;8.15;6.95;;;;;;;-0.43;100.00;94604.50;5076750;28;20085;-65
2022/11/23 02:49:31;;;;;;;10.35;7.40;;;;;;;-0.42;100.00;94601.00;5075280;28;20085;-65
2022/11/23 02:51:56;;;;;;;8.50;7.63;;;;;;;-0.39;100.00;94602.56;5082514;28;20493;-66
2022/11/23 02:54:21;;;;;;;8.48;7.03;;;;;;;-0.39;100.00;94599.97;5086252;28;20024;-65
2022/11/23 02:56:46;;;;;;;9.95;7.63;;;;;;;-0.35;100.00;94604.81;5077608;28;20107;-65
2022/11/23 02:59:12;;;;;;;8.13;7.43;;;;;;;-0.38;100.00;94602.44;5080755;28;20098;-65
2022/11/23 03:01:39;;;;;;;8.90;7.70;;;;;;;-0.36;100.00;94592.81;5086454;28;20077;-65
2022/11/23 03:04:05;;;;;;;8.88;7.65;;;;;;;-0.44;100.00;94579.59;5086667;28;20111;-60
2022/11/23 03:06:30;;;;;;;10.23;8.57;;;;;;;-0.48;100.00;94576.38;5085210;28;20028;-65
2022/11/23 03:08:56;;;;;;;11.68;10.48;;;;;;;-0.45;100.00;94577.94;5082949;28;20043;-65
2022/11/23 03:11:21;;;;;;;12.23;10.15;;;;;;;-0.49;100.00;94579.88;5081444;28;20031;-65
2022/11/23 03:13:47;;;;;;;13.68;11.90;;;;;;;-0.53;100.00;94567.28;5079509;28;20028;-65
2022/11/23 03:16:12;;;;;;;12.13;10.93;;;;;;;-0.56;100.00;94555.38;5078348;28;20028;-65
2022/11/23 03:18:37;;;;;;;12.35;11.20;;;;;;;-0.61;100.00;94540.16;5073409;28;20393;-65
2022/11/23 03:21:09;;;;;;;10.65;9.55;;;;;;;-0.66;100.00;94528.50;5087038;28;20051;-65
2022/11/23 03:23:35;;;;;;;9.90;8.45;;;;;;;-0.75;100.00;94522.97;5084042;28;20095;-65
2022/11/23 03:26:01;;;;;;;8.98;8.18;;;;;;;-0.79;100.00;94523.28;5081663;28;20043;-60
2022/11/23 03:28:26;;;;;;;8.77;7.93;;;;;;;-0.80;100.00;94517.31;5078067;28;20473;-60
2022/11/23 03:30:52;;;;;;;8.30;7.50;;;;;;;-0.75;100.00;94504.06;5079640;28;20478;-60
2022/11/23 03:33:18;;;;;;;9.25;8.07;;;;;;;-0.72;100.00;94499.50;5077568;28;20521;-60
2022/11/23 03:35:44;;;;;;;10.85;8.95;;;;;;;-0.70;100.00;94496.84;5081213;28;20029;-60
2022/11/23 03:38:10;;;;;;;13.57;8.68;;;;;;;-0.64;100.00;94493.84;5079298;28;20028;-60
2022/11/23 03:40:35;;;;;;;12.23;9.52;;;;;;;-0.62;100.00;94497.13;5079388;28;20078;-60
2022/11/23 03:43:01;;;;;;;11.40;9.52;;;;;;;-0.52;100.00;94501.72;5080405;28;20111;-63
2022/11/23 03:45:26;;;;;;;9.75;8.95;;;;;;;-0.56;100.00;94508.00;5077693;28;20497;-62
2022/11/23 03:47:52;;;;;;;10.10;9.20;;;;;;;-0.59;100.00;94509.84;5079914;28;20492;-62
2022/11/23 03:50:17;;;;;;;9.15;8.25;;;;;;;-0.64;100.00;94505.94;5084498;28;20012;-63
2022/11/23 03:52:42;;;;;;;9.90;8.90;;;;;;;-0.66;100.00;94512.97;5082181;28;20027;-63
2022/11/23 03:55:08;;;;;;;8.95;8.05;;;;;;;-0.69;100.00;94516.59;5083099;28;20557;-62
2022/11/23 03:57:33;;;;;;;8.60;7.50;;;;;;;-0.74;100.00;94514.31;5081571;28;20037;-63
2022/11/23 03:59:59;;;;;;;9.50;8.57;;;;;;;-0.77;100.00;94531.78;5082815;28;20028;-62
2022/11/23 04:02:24;;;;;;;10.77;7.43;;;;;;;-0.80;100.00;94535.41;5081811;28;20085;-65
2022/11/23 04:04:49;;;;;;;7.95;7.20;;;;;;;-0.78;100.00;94523.19;5088790;28;20024;-61
2022/11/23 04:07:15;;;;;;;8.00;7.10;;;;;;;-0.82;100.00;94531.25;5084482;28;20031;-61
2022/11/23 04:09:40;;;;;;;7.75;5.30;;;;;;;-0.82;100.00;94534.66;5085806;28;20286;-61
2022/11/23 04:12:08;;;;;;;5.28;4.70;;;;;;;-0.87;100.00;94529.78;5089396;28;20024;-61
2022/11/23 04:14:33;;;;;;;9.93;5.63;;;;;;;-0.88;100.00;94517.81;5090955;28;20439;-61
2022/11/23 04:16:58;;;;;;;7.97;5.22;;;;;;;-0.89;100.00;94500.66;5084217;28;20070;-61
2022/11/23 04:19:24;;;;;;;7.30;6.00;;;;;;;-0.85;100.00;94498.69;5085888;28;20085;-61
2022/11/23 04:21:49;;;;;;;15.32;11.30;;;;;;;-0.86;100.00;94489.28;5084279;28;20486;-61
2022/11/23 04:24:14;;;;;;;10.27;7.72;;;;;;;-0.88;100.00;94484.22;5090642;28;20020;-65
2022/11/23 04:26:40;;;;;;;9.23;8.43;;;;;;;-0.78;100.00;94497.34;5091583;28;20016;-66
2022/11/23 04:29:05;;;;;;;8.88;7.35;;;;;;;-0.65;100.00;94506.88;5091972;28;20020;-66
2022/11/23 04:31:31;;;;;;;6.00;5.00;;;;;;;-0.54;100.00;94519.09;5092141;28;20032;-66
2022/11/23 04:33:56;;;;;;;6.20;4.80;;;;;;;-0.30;100.00;94516.59;5091695;28;20039;-66
2022/11/23 04:36:22;;;;;;;5.88;5.40;;;;;;;-0.42;100.00;94509.69;5091905;28;20097;-66
2022/11/23 04:38:47;;;;;;;5.70;5.20;;;;;;;-0.56;100.00;94508.00;5091247;28;20027;-59
2022/11/23 04:41:13;;;;;;;7.55;5.07;;;;;;;-0.72;100.00;94504.69;5091917;28;20055;-60
2022/11/23 04:43:38;;;;;;;5.88;5.28;;;;;;;-0.80;100.00;94491.47;5091141;28;20024;-63
2022/11/23 04:46:03;;;;;;;5.65;5.25;;;;;;;-0.82;100.00;94475.22;5073334;28;20085;-63
2022/11/23 04:48:30;;;;;;;5.50;5.00;;;;;;;-0.84;100.00;94481.41;5089743;28;20032;-62
2022/11/23 04:50:56;;;;;;;5.60;5.05;;;;;;;-0.90;100.00;94506.75;5091436;28;20032;-62
2022/11/23 04:53:22;;;;;;;11.15;9.07;;;;;;;-0.93;100.00;94537.97;5090483;28;20455;-63
2022/11/23 04:55:47;;;;;;;11.15;8.48;;;;;;;-0.87;100.00;94557.41;5091028;28;20024;-63
2022/11/23 04:58:12;;;;;;;9.02;7.53;;;;;;;-0.70;100.00;94552.88;5090584;28;20392;-66
2022/11/23 05:00:38;;;;;;;7.32;6.63;;;;;;;-0.72;100.00;94550.41;5091302;28;20051;-65
2022/11/23 05:03:03;;;;;;;6.47;5.90;;;;;;;-0.73;100.00;94541.00;5090759;28;20065;-59
2022/11/23 05:05:29;;;;;;;9.48;7.07;;;;;;;-0.75;100.00;94529.94;5091081;28;20401;-60
2022/11/23 05:07:55;;;;;;;8.07;6.80;;;;;;;-0.76;100.00;94526.50;5087027;28;20051;-60
2022/11/23 05:10:20;;;;;;;7.53;5.97;;;;;;;-0.77;100.00;94542.13;5071297;28;20017;-60
2022/11/23 05:12:46;;;;;;;6.10;5.60;;;;;;;-0.76;100.00;94534.25;5088674;28;20022;-59
2022/11/23 05:15:13;;;;;;;8.95;7.22;;;;;;;-0.79;100.00;94528.44;5079850;28;20501;-60
2022/11/23 05:17:38;;;;;;;6.57;5.93;;;;;;;-0.74;100.00;94532.41;5088187;28;20028;-65
2022/11/23 05:20:04;;;;;;;6.47;6.05;;;;;;;-0.69;100.00;94532.09;5088496;28;20028;-67
2022/11/23 05:22:29;;;;;;;11.30;10.27;;;;;;;-0.73;100.00;94535.81;5086434;28;20149;-61
2022/11/23 05:24:55;;;;;;;11.13;9.27;;;;;;;-0.75;100.00;94551.41;5090798;28;20028;-61
2022/11/23 05:27:20;;;;;;;10.35;9.55;;;;;;;-0.77;100.00;94573.97;5090811;28;20030;-61
2022/11/23 05:29:46;;;;;;;10.90;9.80;;;;;;;-0.72;100.00;94587.41;5073730;28;20024;-61
2022/11/23 05:32:11;;;;;;;13.30;10.77;;;;;;;-0.74;100.00;94572.94;5086309;28;20497;-61
2022/11/23 05:34:36;;;;;;;12.15;11.25;;;;;;;-0.75;100.00;94564.34;5091484;28;20032;-61
2022/11/23 05:37:02;;;;;;;15.98;14.32;;;;;;;-0.73;100.00;94551.34;5074862;28;20557;-63
2022/11/23 05:39:27;;;;;;;14.07;12.90;;;;;;;-0.64;100.00;94501.59;5078490;28;20465;-61
2022/11/23 05:41:52;;;;;;;13.20;11.95;;;;;;;-0.54;100.00;94501.00;5089437;28;20033;-64
2022/11/23 05:44:18;;;;;;;12.02;11.13;;;;;;;-0.55;100.00;94527.75;5089362;28;20028;-64
2022/11/23 05:46:43;;;;;;;10.13;9.18;;;;;;;-0.53;100.00;94541.44;5087362;28;20409;-63
2022/11/23 05:49:09;;;;;;;21.67;19.50;;;;;;;-0.49;100.00;94558.38;5089120;28;20032;-64
2022/11/23 05:51:34;;;;;;;20.77;19.00;;;;;;;-0.47;100.00;94541.81;5085809;28;20077;-63
2022/11/23 05:54:01;;;;;;;42.15;38.55;;;;;;;-0.37;100.00;94521.34;5089223;28;20107;-64
2022/11/23 05:56:26;;;;;;;39.90;36.42;;;;;;;-0.37;100.00;94520.53;5087695;28;20028;-61
2022/11/23 05:58:54;;;;;;;37.30;34.10;;;;;;;-0.37;100.00;94518.75;5089427;28;20023;-62
2022/11/23 06:01:20;;;;;;;28.00;25.70;;;;;;;-0.33;100.00;94512.47;5087788;28;20110;-62
2022/11/23 06:03:45;;;;;;;21.25;19.38;;;;;;;-0.25;100.00;94519.69;5089272;28;20123;-62
2022/11/23 06:06:10;;;;;;;30.83;28.35;;;;;;;-0.26;100.00;94530.16;5088531;28;20048;-62
2022/11/23 06:08:36;;;;;;;26.90;24.50;;;;;;;-0.25;100.00;94527.44;5087486;28;20024;-62
2022/11/23 06:11:01;;;;;;;28.70;26.10;;;;;;;-0.17;100.00;94513.97;5077661;28;20020;-62
2022/11/23 06:13:26;;;;;;;28.63;26.05;;;;;;;-0.10;100.00;94523.00;5082960;28;20020;-62
2022/11/23 06:15:52;;;;;;;26.10;23.73;;;;;;;-0.11;100.00;94529.09;5081616;28;20032;-67
2022/11/23 06:18:17;;;;;;;28.23;25.85;;;;;;;-0.13;100.00;94543.06;5087554;28;20027;-67
2022/11/23 06:20:42;;;;;;;26.50;24.17;;;;;;;-0.13;100.00;94562.00;5085753;28;20035;-60
2022/11/23 06:23:08;;;;;;;23.17;20.92;;;;;;;-0.14;100.00;94568.09;5085784;28;20114;-60
2022/11/23 06:25:33;;;;;;;21.35;19.65;;;;;;;-0.15;100.00;94575.06;5080840;28;20035;-59
2022/11/23 06:28:00;;;;;;;13.57;12.38;;;;;;;-0.07;100.00;94571.09;5069601;28;20024;-60
2022/11/23 06:30:27;;;;;;;9.05;8.30;;;;;;;-0.08;100.00;94585.81;5071195;28;20024;-60
2022/11/23 06:32:53;;;;;;;10.75;7.90;;;;;;;-0.07;100.00;94564.19;5069712;28;20040;-60
2022/11/23 06:35:18;;;;;;;6.20;5.60;;;;;;;0.03;100.00;94560.94;5084135;28;20031;-64
2022/11/23 06:37:46;;;;;;;7.28;6.53;;;;;;;0.20;100.00;94557.19;5090241;28;20024;-58
2022/11/23 06:40:12;;;;;;;7.57;5.95;;;;;;;0.21;100.00;94569.19;5076556;28;20391;-61
2022/11/23 06:42:37;;;;;;;7.32;6.15;;;;;;;0.19;100.00;94571.91;5084739;28;20027;-62
2022/11/23 06:45:03;;;;;;;5.18;4.70;;;;;;;0.08;100.00;94575.25;5075965;28;20490;-62
2022/11/23 06:47:29;;;;;;;5.50;5.00;;;;;;;0.07;100.00;94578.75;5085547;28;20024;-62
2022/11/23 06:49:54;;;;;;;6.05;5.45;;;;;;;0.06;100.00;94571.94;5076665;28;20039;-62
2022/11/23 06:52:20;;;;;;;7.90;5.78;;;;;;;0.11;100.00;94574.19;5087876;28;20055;-62
2022/11/23 06:54:46;;;;;;;8.02;7.22;;;;;;;0.09;100.00;94581.22;5086295;28;20043;-61
2022/11/23 06:57:11;;;;;;;7.85;7.07;;;;;;;0.06;100.00;94579.69;5088203;28;20032;-61
2022/11/23 06:59:37;;;;;;;6.72;6.18;;;;;;;0.09;100.00;94576.06;5069028;28;20024;-67
2022/11/23 07:02:02;;;;;;;7.57;6.97;;;;;;;0.12;100.00;94573.28;5086676;28;20030;-67
2022/11/23 07:04:27;;;;;;;7.50;6.80;;;;;;;0.17;100.00;94583.28;5069383;28;20563;-67
2022/11/23 07:06:53;;;;;;;7.95;7.25;;;;;;;0.21;100.00;94584.72;5072599;28;20038;-67
2022/11/23 07:09:18;;;;;;;11.10;10.07;;;;;;;0.24;100.00;94575.00;5077409;28;20032;-67
2022/11/23 07:11:44;;;;;;;12.93;11.75;;;;;;;0.28;100.00;94573.84;5070780;28;20085;-67
2022/11/23 07:14:10;;;;;;;118.63;77.32;;;;;;;0.36;100.00;94573.31;5084594;28;20049;-60
2022/11/23 07:16:35;;;;;;;94.93;68.22;;;;;;;0.37;100.00;94587.91;5083581;28;20020;-67
2022/11/23 07:19:01;;;;;;;36.30;29.50;;;;;;;0.37;100.00;94595.69;5078171;28;20039;-68
2022/11/23 07:21:26;;;;;;;26.23;18.85;;;;;;;0.40;100.00;94595.47;5074819;28;20025;-68
2022/11/23 07:23:51;;;;;;;21.27;17.35;;;;;;;0.46;100.00;94608.94;5081520;28;20107;-69
2022/11/23 07:26:17;;;;;;;16.05;14.45;;;;;;;0.53;100.00;94605.00;5088196;28;20044;-66
2022/11/23 07:28:42;;;;;;;13.82;12.43;;;;;;;0.60;100.00;94606.19;5072038;28;20024;-68
2022/11/23 07:31:07;;;;;;;17.58;14.23;;;;;;;0.66;100.00;94599.78;5080337;28;20059;-66
2022/11/23 07:33:33;;;;;;;16.67;14.95;;;;;;;0.74;100.00;94592.28;5086304;28;20040;-60
2022/11/23 07:36:01;;;;;;;16.95;14.80;;;;;;;0.75;100.00;94593.13;5076308;28;20024;-67
2022/11/23 07:38:27;;;;;;;12.93;11.63;;;;;;;0.85;100.00;94594.09;5085056;28;20027;-66
2022/11/23 07:40:53;;;;;;;10.02;9.13;;;;;;;0.90;100.00;94601.56;5072029;28;20546;-68
2022/11/23 07:43:18;;;;;;;19.85;17.75;;;;;;;0.94;100.00;94597.81;5086430;28;20095;-68
2022/11/23 07:45:44;;;;;;;21.95;18.00;;;;;;;0.98;100.00;94602.66;5089468;28;20028;-68
2022/11/23 07:48:09;;;;;;;16.48;14.77;;;;;;;1.00;100.00;94608.56;5086356;28;20095;-68
2022/11/23 07:50:37;;;;;;;18.65;16.90;;;;;;;1.06;100.00;94606.47;5089536;28;20049;-68
2022/11/23 07:53:04;;;;;;;18.33;16.42;;;;;;;1.11;100.00;94601.78;5086169;28;20029;-57
2022/11/23 07:55:30;;;;;;;15.85;13.48;;;;;;;1.13;100.00;94598.13;5089451;28;20062;-60
2022/11/23 07:57:56;;;;;;;14.15;12.82;;;;;;;1.17;100.00;94603.09;5085844;28;20020;-61
2022/11/23 08:00:23;;;;;;;10.40;9.43;;;;;;;1.22;100.00;94614.78;5087626;28;20194;-60
2022/11/23 08:02:48;;;;;;;11.45;8.80;;;;;;;1.29;100.00;94604.81;5074958;28;20074;-60
2022/11/23 08:05:14;;;;;;;13.85;12.55;;;;;;;1.29;100.00;94610.81;5085125;28;20024;-60
2022/11/23 08:07:39;;;;;;;12.70;11.35;;;;;;;1.39;100.00;94623.13;5080262;28;20040;-60
2022/11/23 08:10:05;;;;;;;11.65;10.48;;;;;;;1.47;100.00;94625.97;5079659;28;20124;-60
2022/11/23 08:12:31;;;;;;;13.25;11.95;;;;;;;1.52;100.00;94623.03;5081537;28;20024;-60
2022/11/23 08:14:56;;;;;;;15.98;12.00;;;;;;;1.64;100.00;94622.13;5080957;28;20016;-61
2022/11/23 08:17:21;;;;;;;14.02;11.10;;;;;;;1.78;100.00;94630.66;5087264;28;20111;-61
2022/11/23 08:19:47;;;;;;;19.70;12.13;;;;;;;1.67;100.00;94631.47;5092165;28;20404;-61
2022/11/23 08:22:12;;;;;;;12.60;7.53;;;;;;;1.60;100.00;94645.84;5085982;28;20022;-61
2022/11/23 08:24:38;;;;;;;9.40;6.95;;;;;;;1.57;100.00;94641.69;5087503;28;20039;-61
2022/11/23 08:27:03;;;;;;;6.93;6.22;;;;;;;1.63;100.00;94649.00;5080449;28;20055;-61
2022/11/23 08:29:29;;;;;;;8.52;7.72;;;;;;;1.70;100.00;94649.38;5085933;28;20107;-62
2022/11/23 08:31:55;;;;;;;8.77;6.65;;;;;;;1.78;100.00;94651.41;5081563;28;20031;-64
2022/11/23 08:34:20;;;;;;;9.02;6.25;;;;;;;1.82;100.00;94647.66;5083984;28;20047;-61
2022/11/23 08:36:46;;;;;;;14.85;8.95;;;;;;;1.76;100.00;94648.94;5081717;28;20465;-61
2022/11/23 08:39:13;;;;;;;10.05;8.38;;;;;;;1.92;100.00;94648.63;5074353;28;20028;-61
2022/11/23 08:41:39;;;;;;;8.63;7.38;;;;;;;1.92;100.00;94656.44;5072238;28;20024;-61
2022/11/23 08:44:07;;;;;;;13.52;11.63;;;;;;;1.84;100.00;94650.97;5084945;28;20031;-61
2022/11/23 08:46:32;;;;;;;12.05;9.82;;;;;;;1.90;100.00;94657.47;5086670;28;20020;-61
2022/11/23 08:48:58;;;;;;;10.18;9.25;;;;;;;1.91;100.00;94659.13;5087217;28;20025;-61
2022/11/23 08:51:23;;;;;;;10.57;9.48;;;;;;;1.86;100.00;94655.09;5080392;28;20459;-60
2022/11/23 08:53:49;;;;;;;11.98;9.93;;;;;;;1.88;100.00;94660.19;5084623;28;20036;-61
2022/11/23 08:56:15;;;;;;;11.10;9.82;;;;;;;1.93;100.00;94660.69;5087334;28;20058;-61
2022/11/23 08:58:40;;;;;;;17.88;10.40;;;;;;;1.96;100.00;94663.03;5088426;28;20047;-61
2022/11/23 09:01:11;;;;;;;17.02;14.95;;;;;;;2.03;100.00;94662.56;5089739;28;20035;-61
2022/11/23 09:03:37;;;;;;;18.15;16.33;;;;;;;2.11;100.00;94661.06;5077868;28;20413;-61
2022/11/23 09:06:02;;;;;;;22.25;16.38;;;;;;;2.17;100.00;94659.78;5088061;28;20146;-61
2022/11/23 09:08:28;;;;;;;17.67;15.85;;;;;;;2.21;100.00;94657.75;5086228;28;20032;-61
2022/11/23 09:10:57;;;;;;;20.67;16.02;;;;;;;2.29;100.00;94658.03;5084633;28;20413;-60
2022/11/23 09:13:23;;;;;;;13.10;11.57;;;;;;;2.41;100.00;94659.66;5074050;28;20066;-60
2022/11/23 09:15:48;;;;;;;7.60;6.78;;;;;;;2.53;100.00;94665.69;5078719;28;20048;-59
2022/11/23 09:18:14;;;;;;;9.57;6.45;;;;;;;2.63;100.00;94659.81;5074943;28;20528;-60
2022/11/23 09:20:39;;;;;;;7.43;6.72;;;;;;;2.71;100.00;94667.81;5081638;28;20020;-60
2022/11/23 09:23:04;;;;;;;6.47;5.30;;;;;;;2.79;100.00;94673.28;5073946;28;20020;-60
2022/11/23 09:25:30;;;;;;;7.30;5.90;;;;;;;2.91;100.00;94666.28;5081179;28;20024;-60
2022/11/23 09:27:58;;;;;;;4.63;4.25;;;;;;;2.89;100.00;94677.75;5084110;28;20034;-60
2022/11/23 09:30:24;;;;;;;4.57;4.18;;;;;;;3.01;100.00;94674.19;5082580;28;20036;-62
2022/11/23 09:32:49;;;;;;;5.78;4.63;;;;;;;3.11;100.00;94682.91;5089969;28;20119;-61
2022/11/23 09:35:15;;;;;;;6.93;6.20;;;;;;;3.13;100.00;94669.78;5089055;28;20024;-61
2022/11/23 09:37:40;;;;;;;8.45;7.13;;;;;;;3.20;100.00;94673.56;5090029;28;20019;-61
2022/11/23 09:40:06;;;;;;;9.15;7.55;;;;;;;3.25;100.00;94668.81;5088302;28;20081;-61
2022/11/23 09:42:46;;;;;;;9.13;8.23;;;;;;;3.17;100.00;94672.97;5079688;28;20032;-61
2022/11/23 09:45:20;;;;;;;7.93;6.38;;;;;;;3.34;100.00;94659.44;5082645;28;20024;-61
2022/11/23 09:48:23;;;;;;;7.47;6.50;;;;;;;3.30;100.00;94669.25;5077548;28;20028;-61
2022/11/23 09:50:55;;;;;;;5.40;4.90;;;;;;;3.37;100.00;94664.41;5070026;28;20029;-68
2022/11/23 09:53:32;;;;;;;7.50;5.60;;;;;;;3.38;100.00;94670.44;5087216;28;20032;-69
2022/11/23 09:55:58;;;;;;;5.80;5.30;;;;;;;3.46;100.00;94664.63;5085424;28;20047;-69
2022/11/23 09:58:32;;;;;;;5.72;5.22;;;;;;;3.52;100.00;94674.53;5085761;28;20477;-69
2022/11/23 10:01:11;;;;;;;5.53;4.97;;;;;;;3.48;100.00;94686.94;5082463;28;20055;-69
2022/11/23 10:03:39;;;;;;;5.72;4.70;;;;;;;3.52;100.00;94677.13;5072087;28;20483;-69
2022/11/23 10:06:25;;;;;;;4.70;4.28;;;;;;;3.62;100.00;94678.03;5087369;28;20028;-69
2022/11/23 10:09:09;;;;;;;4.57;4.15;;;;;;;3.77;100.00;94682.94;5079769;28;20048;-62
2022/11/23 10:11:40;;;;;;;4.72;4.32;;;;;;;3.76;100.00;94678.69;5079875;28;20036;-59
2022/11/23 10:14:17;;;;;;;5.85;4.95;;;;;;;3.78;100.00;94676.78;5077755;28;20025;-58
2022/11/23 10:17:17;;;;;;;5.38;4.88;;;;;;;3.90;100.00;94675.81;5082514;28;20028;-58
2022/11/23 10:20:03;;;;;;;6.07;5.55;;;;;;;4.01;100.00;94673.13;5078343;28;20073;-59
2022/11/23 10:22:52;;;;;;;7.50;4.80;;;;;;;4.00;100.00;94670.66;5077547;28;20028;-59
2022/11/23 10:25:19;;;;;;;3.97;3.30;;;;;;;3.92;100.00;94676.50;5082111;28;20080;-59
2022/11/23 10:27:48;;;;;;;3.10;2.90;;;;;;;3.82;100.00;94668.63;5082070;28;20133;-62
2022/11/23 10:30:16;;;;;;;3.55;3.25;;;;;;;3.77;100.00;94675.16;5077676;28;20103;-68
2022/11/23 10:33:20;;;;;;;3.28;2.95;;;;;;;3.90;100.00;94680.16;5082061;28;20265;-68
2022/11/23 10:35:46;;;;;;;3.90;3.45;;;;;;;4.00;100.00;94671.47;5063589;28;20067;-68
2022/11/23 10:38:16;;;;;;;3.97;3.70;;;;;;;3.98;100.00;94668.19;5088642;28;20056;-68
2022/11/23 10:41:07;;;;;;;4.75;4.28;;;;;;;3.98;100.00;94673.38;5086658;28;20048;-68
2022/11/23 10:43:51;;;;;;;7.95;5.22;;;;;;;3.89;100.00;94675.91;5081524;28;20444;-68
2022/11/23 10:46:29;;;;;;;5.72;5.22;;;;;;;3.82;100.00;94672.97;5077715;28;20032;-63
2022/11/23 10:49:06;;;;;;;5.13;4.72;;;;;;;3.82;100.00;94672.97;5081463;28;20625;-63
2022/11/23 10:51:32;;;;;;;6.70;6.03;;;;;;;3.80;100.00;94674.88;5079467;28;20030;-69
2022/11/23 10:54:15;;;;;;;7.85;6.05;;;;;;;3.81;100.00;94672.16;5088943;28;20035;-69
2022/11/23 10:56:47;;;;;;;6.93;4.68;;;;;;;3.84;100.00;94665.88;5088451;28;20016;-69
2022/11/23 10:59:34;;;;;;;4.60;4.05;;;;;;;3.92;100.00;94667.84;5081211;28;20028;-69
2022/11/23 11:02:02;;;;;;;8.73;7.93;;;;;;;3.96;100.00;94662.28;5080868;28;20559;-69
2022/11/23 11:04:27;;;;;;;10.57;9.68;;;;;;;4.00;100.00;94666.25;5075408;28;20040;-69
2022/11/23 11:07:09;;;;;;;12.57;11.20;;;;;;;4.03;100.00;94661.75;5073542;28;20020;-62
2022/11/23 11:09:35;;;;;;;12.45;11.30;;;;;;;4.03;100.00;94659.16;5085139;28;20401;-69
2022/11/23 11:12:01;;;;;;;12.95;10.95;;;;;;;4.05;100.00;94660.69;5086783;28;20031;-69
2022/11/23 11:14:26;;;;;;;9.10;8.23;;;;;;;4.12;100.00;94658.41;5090187;28;20489;-69
2022/11/23 11:16:59;;;;;;;10.02;6.82;;;;;;;4.17;100.00;94651.03;5091474;28;20034;-69
2022/11/23 11:19:42;;;;;;;7.57;6.90;;;;;;;4.22;100.00;94638.44;5090108;28;20035;-69
2022/11/23 11:22:33;;;;;;;9.77;8.93;;;;;;;4.24;100.00;94636.50;5084528;28;20073;-69
2022/11/23 11:24:59;;;;;;;9.80;8.90;;;;;;;4.24;100.00;94635.72;5074660;28;20052;-62